Airfield :
LOGIN :

Register | Disclaimer

   EN    FR    IT 

 










Legend :    VFR   Marginal VFR   IFR   Intensive IFR   Very Intensive IFR
Visi :
Ceiling :
>= 8 km
>= 3000ft
5 to 8 km
1000 to 3000 ft
1500m to 5 km
500 to 1000 ft
800 to 1500m
200 to 500 ft
< 800m
< 200 ft
Symbols :   Thunderstorms  Fog  Heavy snow  Heavy precipitations  Wind > 20 kt
SIGMETs :     Misc.  Thunderstorms  Icing  Turbulence  Mountain Waves  Volcanic Ashes






- Airport Elevation : 194 ft


EBCV - Chièvres

CURRENT METAR :
  • 200025Z AUTO 21013KT 9000 BKN009/// BKN049/// BKN085/// 07/06 Q1019 GRN

EXPIRED METARs :
  • 192355Z AUTO 20013KT 9999 SCT009/// BKN032/// OVC047/// 07/06 Q1019 GRN
  • 192325Z AUTO 21015KT 9999 SCT008/// BKN028/// BKN082/// 07/06 Q1020 GRN
  • 192255Z AUTO 21014KT 9999 BKN009/// OVC081/// 07/06 Q1020 GRN
  • 192225Z AUTO 21014KT 9999 BKN010/// OVC052/// 07/06 Q1020 GRN
  • 192155Z AUTO 20016KT 9999 OVC009/// 07/06 Q1020 GRN

TAF TAF EBCV
Valid from the 19 at 19:00 until the 20 at 07:00 UTC


191541Z 1919/2007 21012KT 5000 -RADZ SCT008 OVC012
BECMG 1921/1923 9999 NSW FEW020 BKN030
TEMPO 1921/2007 8000 -RA SCT015 BKN020 BY EBWM



MET'MAP, your aeronautical weather chart ! - Copyright ORBIFLY December 2007 - Disclaimer

ORBIFLY MET'MAP TEAM :

Programming & Development : Alexandra Zaïnal
Concept & original design : Baudouin d'Aumeries
Assistance for programming : Marc-Olivier Méhu
Technical & hardware support : Manuel Goepfert

Contact : metmap@orbifly.com




SOURCES & CREDITS :

   NOAA